Caribbean Galaxy — 3EZV4 — position and weather

sailwx.info

Track history (hours):
 
Tides and Currents Weather Stations Pressure Air Temp Water Temp Dewpoint Dewpoint Depression Visibility Wind Speed Wind Dir Waves Ship Positions

Caribbean Galaxy

Last reported at 2015-May-08 13:10 UTC. Time now 2015-May-27 03:49 UTC.
Position N 01°19' E 104°22'.
Warning: this ship's position is 18 days out of date.

Length 246 m; draft 8 m.

Type: Tanker. MMSI: 357449000.

Date/timePositionNaut miles runAvg speedWind from/ knotsBaromVisibWave heightAir tempDewpointWater temp
2015-May-08 13:10N 01°19' E 104°22'910.2
2015-May-08 12:17N 01°16' E 104°13'810.8
2015-May-08 11:33N 01°16' E 104°06'5 4.6
2015-May-08 10:31N 01°17' E 104°01'0 0.0
2015-May-08 09:31N 01°17' E 104°01'0 0.0
2015-May-08 08:28N 01°17' E 104°01'0 0.0
2015-May-08 07:31N 01°17' E 104°01'0 0.0
2015-May-08 06:22N 01°17' E 104°01'0 0.0
2015-May-08 04:28N 01°17' E 104°01'0 0.0
2015-May-08 03:25N 01°17' E 104°01'0 0.2
2015-May-08 02:22N 01°17' E 104°02'0 0.0
2015-May-08 01:10N 01°17' E 104°02'0 0.0
2015-May-08 00:31N 01°17' E 104°02'0 0.0
2015-May-07 23:19N 01°17' E 104°02'0 0.0
2015-May-07 22:28N 01°17' E 104°02'0 0.0
2015-May-07 21:19N 01°17' E 104°02'0 0.0
2015-May-07 20:28N 01°17' E 104°02'0 0.0
2015-May-07 19:16N 01°17' E 104°02'0 0.0
2015-May-07 18:28N 01°17' E 104°02'0 0.2
2015-May-07 17:28N 01°17' E 104°01'2 2.2
2015-May-07 16:33N 01°17' E 103°59'1 1.3
2015-May-07 15:33N 01°16' E 104°00'7 7.0
2015-May-07 14:33N 01°17' E 104°07'  
Track history (hours):
 
Tides and Currents Weather Stations Pressure Air Temp Water Temp Dewpoint Dewpoint Depression Visibility Wind Speed Wind Dir Waves Ship Positions

Caribbean Galaxy

Last reported at 2015-May-08 13:10 UTC. Time now 2015-May-27 03:49 UTC.
Position N 01°19' E 104°22'.
Warning: this ship's position is 18 days out of date.

Length 246 m; draft 8 m.

Type: Tanker. MMSI: 357449000.

Date/timePositionNaut miles runAvg speedWind from/ knotsBaromVisibWave heightAir tempDewpointWater temp
2015-May-08 13:10N 01°19' E 104°22'910.2
2015-May-08 12:17N 01°16' E 104°13'810.8
2015-May-08 11:33N 01°16' E 104°06'5 4.6
2015-May-08 10:31N 01°17' E 104°01'0 0.0
2015-May-08 09:31N 01°17' E 104°01'0 0.0
2015-May-08 08:28N 01°17' E 104°01'0 0.0
2015-May-08 07:31N 01°17' E 104°01'0 0.0
2015-May-08 06:22N 01°17' E 104°01'0 0.0
2015-May-08 04:28N 01°17' E 104°01'0 0.0
2015-May-08 03:25N 01°17' E 104°01'0 0.2
2015-May-08 02:22N 01°17' E 104°02'0 0.0
2015-May-08 01:10N 01°17' E 104°02'0 0.0
2015-May-08 00:31N 01°17' E 104°02'0 0.0
2015-May-07 23:19N 01°17' E 104°02'0 0.0
2015-May-07 22:28N 01°17' E 104°02'0 0.0
2015-May-07 21:19N 01°17' E 104°02'0 0.0
2015-May-07 20:28N 01°17' E 104°02'0 0.0
2015-May-07 19:16N 01°17' E 104°02'0 0.0
2015-May-07 18:28N 01°17' E 104°02'0 0.2
2015-May-07 17:28N 01°17' E 104°01'2 2.2
2015-May-07 16:33N 01°17' E 103°59'1 1.3
2015-May-07 15:33N 01°16' E 104°00'7 7.0
2015-May-07 14:33N 01°17' E 104°07'  

Dump ship's entire track history